createdAt,value
2017-06-16T00:00:07.704Z,7.40
2017-06-16T00:02:35.272Z,6.80
2017-06-16T00:05:02.792Z,7.20
2017-06-16T00:07:30.339Z,8.40
2017-06-16T00:09:58.312Z,7.07
2017-06-16T00:12:25.820Z,6.17
2017-06-16T00:14:54.168Z,6.33
2017-06-16T00:17:21.736Z,7.87
2017-06-16T00:19:49.288Z,6.93
2017-06-16T00:22:16.826Z,8.20
2017-06-16T00:24:44.716Z,7.53
2017-06-16T00:27:12.273Z,8.13
2017-06-16T00:29:39.804Z,8.13
2017-06-16T00:32:07.379Z,7.10
2017-06-16T00:34:34.900Z,8.23
2017-06-16T00:37:02.430Z,7.80
2017-06-16T00:39:30.247Z,9.97
2017-06-16T00:41:57.795Z,7.83
2017-06-16T00:44:25.373Z,8.90
2017-06-16T00:46:52.964Z,8.40
2017-06-16T00:49:21.177Z,8.20
2017-06-16T00:51:48.714Z,8.27
2017-06-16T00:54:16.288Z,9.57
2017-06-16T00:56:43.821Z,8.70
2017-06-16T00:59:11.351Z,8.80
2017-06-16T01:01:38.925Z,7.83
2017-06-16T01:04:06.471Z,9.23
2017-06-16T01:06:34.004Z,8.17
2017-06-16T01:09:01.584Z,8.80
2017-06-16T01:11:29.116Z,9.40
2017-06-16T01:13:56.657Z,9.43
2017-06-16T01:16:24.228Z,8.03
2017-06-16T01:18:51.761Z,8.47
2017-06-16T01:21:19.281Z,8.40
2017-06-16T01:23:47.181Z,8.77
2017-06-16T01:26:14.709Z,8.67
2017-06-16T01:28:42.232Z,8.00
2017-06-16T01:31:09.856Z,8.40
2017-06-16T01:33:37.390Z,10.10
2017-06-16T01:36:04.937Z,12.23
2017-06-16T01:38:33.270Z,8.83
2017-06-16T01:41:00.792Z,9.83
2017-06-16T01:43:28.346Z,8.60
2017-06-16T01:45:56.253Z,10.10
2017-06-16T01:48:23.797Z,10.13
2017-06-16T01:50:51.333Z,8.10
2017-06-16T01:53:18.919Z,8.80
2017-06-16T01:55:46.448Z,9.47
2017-06-16T01:58:13.989Z,9.63
2017-06-16T02:00:41.561Z,10.13
2017-06-16T02:03:09.877Z,9.10
2017-06-16T02:05:37.413Z,10.17
2017-06-16T02:08:04.991Z,10.27
2017-06-16T02:10:32.544Z,11.37
2017-06-16T02:13:00.076Z,9.60
2017-06-16T02:15:27.662Z,11.10
2017-06-16T02:17:55.201Z,9.73
2017-06-16T02:20:23.517Z,10.67
2017-06-16T02:22:51.105Z,9.57
2017-06-16T02:25:18.643Z,10.10
2017-06-16T02:27:46.188Z,11.00
2017-06-16T02:30:13.776Z,10.03
2017-06-16T02:32:41.347Z,10.13
2017-06-16T02:35:08.983Z,10.00
2017-06-16T02:37:36.555Z,12.03
2017-06-16T02:40:04.080Z,11.37
2017-06-16T02:42:31.628Z,11.60
2017-06-16T02:44:59.548Z,11.43
2017-06-16T02:47:27.084Z,10.27
2017-06-16T02:49:54.640Z,11.73
2017-06-16T02:52:22.225Z,11.43
2017-06-16T02:54:49.904Z,11.30
2017-06-16T02:57:17.428Z,11.07
2017-06-16T02:59:45.004Z,12.27
2017-06-16T03:02:12.540Z,11.87
2017-06-16T03:04:40.075Z,13.30
2017-06-16T03:07:07.913Z,11.93
2017-06-16T03:09:35.489Z,14.30
2017-06-16T03:12:03.014Z,14.53
2017-06-16T03:14:30.616Z,13.53
2017-06-16T03:16:58.154Z,12.90
2017-06-16T03:19:25.692Z,12.67
2017-06-16T03:21:53.292Z,11.77
2017-06-16T03:24:26.593Z,13.83
2017-06-16T03:26:54.172Z,13.00
2017-06-16T03:29:22.487Z,12.43
2017-06-16T03:31:50.016Z,12.10
2017-06-16T03:34:18.387Z,13.07
2017-06-16T03:36:45.925Z,11.43
2017-06-16T03:39:13.461Z,11.83
2017-06-16T03:41:41.331Z,12.27
2017-06-16T03:44:08.862Z,12.90
2017-06-16T03:46:36.416Z,11.80
2017-06-16T03:49:04.030Z,12.63
2017-06-16T03:51:31.568Z,12.93
2017-06-16T03:53:59.119Z,13.80
2017-06-16T03:56:26.691Z,11.67
2017-06-16T03:58:54.227Z,13.77
2017-06-16T04:01:21.755Z,12.47
2017-06-16T04:03:49.332Z,13.03
2017-06-16T04:06:16.875Z,13.40
2017-06-16T04:08:45.179Z,13.10
2017-06-16T04:11:12.743Z,11.90
2017-06-16T04:13:40.296Z,12.73
2017-06-16T04:16:07.821Z,12.07
2017-06-16T04:18:35.420Z,13.60
2017-06-16T04:21:02.974Z,13.00
2017-06-16T04:23:30.504Z,14.53
2017-06-16T04:25:58.078Z,13.20
2017-06-16T04:28:25.617Z,13.13
2017-06-16T04:30:53.193Z,13.47
2017-06-16T04:33:20.783Z,12.30
2017-06-16T04:35:48.328Z,13.50
2017-06-16T04:38:15.867Z,12.50
2017-06-16T04:40:43.454Z,13.67
2017-06-16T04:43:10.985Z,13.53
2017-06-16T04:45:38.512Z,13.57
2017-06-16T04:48:06.086Z,14.33
2017-06-16T04:50:33.641Z,14.00
2017-06-16T04:53:01.194Z,14.80
2017-06-16T04:55:28.770Z,13.70
2017-06-16T04:57:56.292Z,14.23
2017-06-16T05:00:23.824Z,13.50
2017-06-16T05:02:51.403Z,13.53
2017-06-16T05:05:19.828Z,14.57
2017-06-16T05:07:47.368Z,15.97
2017-06-16T05:10:14.964Z,12.90
2017-06-16T05:12:42.502Z,12.23
2017-06-16T05:15:10.049Z,12.20
2017-06-16T05:17:37.627Z,13.57
2017-06-16T05:20:05.171Z,13.47
2017-06-16T05:22:38.470Z,14.03
2017-06-16T05:25:06.031Z,14.37
2017-06-16T05:27:34.186Z,14.17
2017-06-16T05:30:01.762Z,15.40
2017-06-16T05:32:29.318Z,14.23
2017-06-16T05:34:56.864Z,15.53
2017-06-16T05:37:24.449Z,15.50
2017-06-16T05:39:51.980Z,14.70
2017-06-16T05:42:19.535Z,16.53
2017-06-16T05:44:47.113Z,16.50
2017-06-16T05:47:14.669Z,14.30
2017-06-16T05:49:42.214Z,17.60
2017-06-16T05:52:09.816Z,15.63
2017-06-16T05:54:37.332Z,17.63
2017-06-16T05:57:04.873Z,17.03
2017-06-16T05:59:33.222Z,17.77
2017-06-16T06:02:00.761Z,16.93
2017-06-16T06:04:28.320Z,17.47
2017-06-16T06:06:55.918Z,16.40
2017-06-16T06:09:24.232Z,17.43
2017-06-16T06:11:51.792Z,18.10
2017-06-16T06:14:19.382Z,21.63
2017-06-16T06:16:46.916Z,19.87
2017-06-16T06:19:14.439Z,17.87
2017-06-16T06:21:42.418Z,18.90
2017-06-16T06:24:10.748Z,20.50
2017-06-16T06:26:38.275Z,18.03
2017-06-16T06:29:05.853Z,17.83
2017-06-16T06:31:33.419Z,15.97
2017-06-16T06:34:00.979Z,16.80
2017-06-16T06:36:28.981Z,17.03
2017-06-16T06:38:57.224Z,16.20
2017-06-16T06:41:24.754Z,17.57
2017-06-16T06:43:52.628Z,17.40
2017-06-16T06:46:20.939Z,16.60
2017-06-16T06:48:48.485Z,17.37
2017-06-16T06:51:16.092Z,16.47
2017-06-16T06:53:43.614Z,17.40
2017-06-16T06:56:11.145Z,17.20
2017-06-16T06:58:39.499Z,13.93
2017-06-16T07:01:07.025Z,15.07
2017-06-16T07:03:34.560Z,13.67
2017-06-16T07:06:02.120Z,19.90
2017-06-16T07:08:29.670Z,14.93
2017-06-16T07:10:57.213Z,14.70
2017-06-16T07:13:24.789Z,15.53
2017-06-16T07:15:53.085Z,13.20
2017-06-16T07:18:20.617Z,13.60
2017-06-16T07:20:48.210Z,13.03
2017-06-16T07:23:15.746Z,12.80
2017-06-16T07:25:43.319Z,12.63
2017-06-16T07:28:10.894Z,13.80
2017-06-16T07:30:38.430Z,12.27
2017-06-16T07:33:05.961Z,11.80
2017-06-16T07:35:33.539Z,12.03
2017-06-16T07:38:01.834Z,13.17
2017-06-16T07:40:29.388Z,9.97
2017-06-16T07:42:57.737Z,11.00
2017-06-16T07:45:25.270Z,10.37
2017-06-16T07:47:52.819Z,11.63
2017-06-16T07:50:20.650Z,9.67
2017-06-16T07:52:48.206Z,9.37
2017-06-16T07:55:15.778Z,9.10
2017-06-16T07:57:43.397Z,9.60
2017-06-16T08:00:10.921Z,9.60
2017-06-16T08:02:38.448Z,8.23
2017-06-16T08:05:06.009Z,8.27
2017-06-16T08:07:33.537Z,8.00
2017-06-16T08:10:01.068Z,7.70
2017-06-16T08:12:28.653Z,7.60
2017-06-16T08:14:56.172Z,8.43
2017-06-16T08:17:23.687Z,7.83
2017-06-16T08:19:51.260Z,7.50
2017-06-16T08:22:18.825Z,9.63
2017-06-16T08:24:46.441Z,9.63
2017-06-16T08:27:14.075Z,12.80
2017-06-16T08:29:41.644Z,8.87
2017-06-16T08:32:09.173Z,8.10
2017-06-16T08:34:37.516Z,7.50
2017-06-16T08:37:05.049Z,8.50
2017-06-16T08:39:32.594Z,7.27
2017-06-16T08:42:00.173Z,7.73
2017-06-16T08:44:27.704Z,9.83
2017-06-16T08:46:55.249Z,9.77
2017-06-16T08:49:22.830Z,7.67
2017-06-16T08:51:50.354Z,8.77
2017-06-16T08:54:17.906Z,8.77
2017-06-16T08:56:45.488Z,10.03
2017-06-16T08:59:13.036Z,9.20
2017-06-16T09:01:40.561Z,8.97
2017-06-16T09:04:08.144Z,10.73
2017-06-16T09:06:35.672Z,8.47
2017-06-16T09:09:03.225Z,9.60
2017-06-16T09:11:30.811Z,15.63
2017-06-16T09:13:58.348Z,19.53
2017-06-16T09:16:25.907Z,16.17
2017-06-16T09:18:55.358Z,10.87
2017-06-16T09:21:22.891Z,13.27
2017-06-16T09:23:50.425Z,12.10
2017-06-16T09:26:17.989Z,15.23
2017-06-16T09:28:45.523Z,13.83
2017-06-16T09:31:13.058Z,16.90
2017-06-16T09:33:40.644Z,15.67
2017-06-16T09:36:08.186Z,22.20
2017-06-16T09:38:35.720Z,16.13
2017-06-16T09:41:03.312Z,19.23
2017-06-16T09:43:30.863Z,13.63
2017-06-16T09:45:58.414Z,15.50
2017-06-16T09:48:26.261Z,13.80
2017-06-16T09:50:53.793Z,11.30
2017-06-16T09:53:21.318Z,11.73
2017-06-16T09:55:48.895Z,14.73
2017-06-16T09:58:16.462Z,13.10
2017-06-16T10:00:44.762Z,11.40
2017-06-16T10:03:12.365Z,12.50
2017-06-16T10:05:40.690Z,11.67
2017-06-16T10:08:08.234Z,12.97
2017-06-16T10:10:36.586Z,10.73
2017-06-16T10:13:04.111Z,9.60
2017-06-16T10:15:31.633Z,9.87
2017-06-16T10:17:59.977Z,8.40
2017-06-16T10:20:27.516Z,7.93
2017-06-16T10:22:55.052Z,7.47
2017-06-16T10:25:22.612Z,7.20
2017-06-16T10:27:50.143Z,8.30
2017-06-16T10:30:17.701Z,7.47
2017-06-16T10:32:46.078Z,7.50
2017-06-16T10:35:13.638Z,7.50
2017-06-16T10:37:41.169Z,6.33
2017-06-16T10:40:08.743Z,6.30
2017-06-16T10:42:36.276Z,6.70
2017-06-16T10:45:03.806Z,5.80
2017-06-16T10:47:31.386Z,5.87
2017-06-16T10:49:58.909Z,5.50
2017-06-16T10:52:27.197Z,5.40
2017-06-16T10:54:55.528Z,5.43
2017-06-16T10:57:23.062Z,6.33
2017-06-16T10:59:50.586Z,7.60
2017-06-16T11:02:18.169Z,7.70
2017-06-16T11:04:45.699Z,7.20
2017-06-16T11:07:13.234Z,9.00
2017-06-16T11:09:40.819Z,8.17
2017-06-16T11:12:08.360Z,7.13
2017-06-16T11:14:35.900Z,8.63
2017-06-16T11:17:03.495Z,8.97
2017-06-16T11:19:31.015Z,11.13
2017-06-16T11:21:58.577Z,11.73
2017-06-16T11:24:26.183Z,9.23
2017-06-16T11:26:53.720Z,10.40
2017-06-16T11:29:21.240Z,9.90
2017-06-16T11:31:48.833Z,11.60
2017-06-16T11:34:16.360Z,20.43
2017-06-16T11:36:43.890Z,8.30
2017-06-16T11:39:11.469Z,8.10
2017-06-16T11:41:38.983Z,8.63
2017-06-16T11:44:06.506Z,9.30
2017-06-16T11:46:34.069Z,9.33
2017-06-16T11:49:01.630Z,8.83
2017-06-16T11:51:29.160Z,9.80
2017-06-16T11:53:56.738Z,10.20
2017-06-16T11:56:24.288Z,9.73
2017-06-16T11:58:51.820Z,11.90
2017-06-16T12:01:19.388Z,7.90
2017-06-16T12:03:46.904Z,6.23
2017-06-16T12:06:14.435Z,4.27
2017-06-16T12:08:42.003Z,4.53
2017-06-16T12:11:09.517Z,5.03
2017-06-16T12:13:37.053Z,3.93
2017-06-16T12:16:04.629Z,4.63
2017-06-16T12:18:32.156Z,4.70
2017-06-16T12:20:59.691Z,4.20
2017-06-16T12:23:27.282Z,4.60
2017-06-16T12:25:54.818Z,5.53
2017-06-16T12:28:22.341Z,8.67
2017-06-16T12:30:49.917Z,8.20
2017-06-16T12:33:17.453Z,25.57
2017-06-16T12:35:44.973Z,51.47
2017-06-16T12:38:12.687Z,9.20
2017-06-16T12:40:40.994Z,13.10
2017-06-16T12:43:08.525Z,16.73
2017-06-16T12:45:36.093Z,6.30
2017-06-16T12:48:03.620Z,5.73
2017-06-16T12:50:31.165Z,4.30
2017-06-16T12:52:58.739Z,4.30
2017-06-16T12:55:26.273Z,5.27
2017-06-16T12:57:53.792Z,3.97
2017-06-16T13:00:21.355Z,9.50
2017-06-16T13:02:48.886Z,4.70
2017-06-16T13:05:16.407Z,5.07
2017-06-16T13:07:44.013Z,6.13
2017-06-16T13:10:11.535Z,6.60
2017-06-16T13:12:39.062Z,5.47
2017-06-16T13:15:06.670Z,4.90
2017-06-16T13:17:34.207Z,5.07
2017-06-16T13:20:01.738Z,6.47
2017-06-16T13:22:29.300Z,4.90
2017-06-16T13:24:56.849Z,7.80
2017-06-16T13:27:24.410Z,9.83
2017-06-16T13:29:52.011Z,6.07
2017-06-16T13:32:19.540Z,7.37
2017-06-16T13:34:47.092Z,6.20
2017-06-16T13:37:14.957Z,5.40
2017-06-16T13:39:42.484Z,5.47
2017-06-16T13:42:10.020Z,5.37
2017-06-16T13:44:37.606Z,4.07
2017-06-16T13:47:05.135Z,4.60
2017-06-16T13:49:32.659Z,6.70
2017-06-16T13:52:00.271Z,6.50
2017-06-16T13:54:27.799Z,7.00
2017-06-16T13:56:55.336Z,7.63
2017-06-16T13:59:22.905Z,5.77
2017-06-16T14:01:50.440Z,5.60
2017-06-16T14:04:17.969Z,5.47
2017-06-16T14:06:45.555Z,7.93
2017-06-16T14:09:13.112Z,4.67
2017-06-16T14:11:41.536Z,6.13
2017-06-16T14:14:09.889Z,5.13
2017-06-16T14:16:37.437Z,8.10
2017-06-16T14:19:06.408Z,7.30
2017-06-16T14:21:33.987Z,4.50
2017-06-16T14:24:01.540Z,6.30
2017-06-16T14:26:29.073Z,3.97
2017-06-16T14:28:56.674Z,10.50
2017-06-16T14:31:24.214Z,5.67
2017-06-16T14:33:51.762Z,8.70
2017-06-16T14:36:19.759Z,4.03
2017-06-16T14:38:47.941Z,6.40
2017-06-16T14:41:15.577Z,5.07
2017-06-16T14:43:43.184Z,4.60
2017-06-16T14:46:10.734Z,8.60
2017-06-16T14:48:38.504Z,4.33
2017-06-16T14:51:06.084Z,4.97
2017-06-16T14:53:33.603Z,4.80
2017-06-16T14:56:01.142Z,3.87
2017-06-16T14:58:28.728Z,5.17
2017-06-16T15:00:57.121Z,7.50
2017-06-16T15:03:27.488Z,6.43
2017-06-16T15:08:29.106Z,4.30
2017-06-16T15:10:57.950Z,14.83
2017-06-16T15:13:25.628Z,3.60
2017-06-16T15:15:57.970Z,5.30
2017-06-16T15:18:26.306Z,4.17
2017-06-16T15:20:57.310Z,4.10
2017-06-16T15:23:32.514Z,3.93
2017-06-16T15:26:19.006Z,7.30
2017-06-16T15:28:51.898Z,3.40
2017-06-16T15:31:21.913Z,4.30
2017-06-16T15:33:58.448Z,3.73
2017-06-16T15:36:33.646Z,5.23
2017-06-16T15:39:03.220Z,5.27
2017-06-16T15:41:31.163Z,5.70
2017-06-16T15:44:00.982Z,5.20
2017-06-16T15:46:28.943Z,3.50
2017-06-16T15:48:57.538Z,8.80
2017-06-16T15:51:25.073Z,5.20
2017-06-16T15:53:53.246Z,4.90
2017-06-16T15:56:21.576Z,5.10
2017-06-16T15:58:52.236Z,4.47
2017-06-16T16:01:21.618Z,9.00
2017-06-16T16:03:50.585Z,5.77
2017-06-16T16:06:19.866Z,9.20
2017-06-16T16:08:50.550Z,6.77
2017-06-16T16:37:16.226Z,7.60
2017-06-16T16:39:45.506Z,9.37
2017-06-16T16:42:13.644Z,5.60
2017-06-16T16:44:41.230Z,6.47
2017-06-16T16:47:09.809Z,6.53
2017-06-16T16:49:37.443Z,6.37
2017-06-16T16:52:05.117Z,5.90
2017-06-16T16:54:32.786Z,5.73
2017-06-16T16:57:01.121Z,4.70
2017-06-16T16:59:28.829Z,7.77
2017-06-16T17:01:57.819Z,6.47
2017-06-16T17:04:25.433Z,6.40
2017-06-16T17:06:53.117Z,8.27
2017-06-16T17:09:23.634Z,5.73
2017-06-16T17:11:57.342Z,7.10
2017-06-16T17:14:26.310Z,4.97
2017-06-16T17:16:53.858Z,5.53
2017-06-16T17:19:29.545Z,4.70
2017-06-16T17:21:57.846Z,6.37
2017-06-16T17:24:27.177Z,4.17
2017-06-16T17:26:56.990Z,6.70
2017-06-16T17:29:24.684Z,3.70
2017-06-16T17:31:52.288Z,3.20
2017-06-16T17:34:21.511Z,3.47
2017-06-16T17:36:49.340Z,5.40
2017-06-16T17:39:20.440Z,3.33
2017-06-16T17:41:48.255Z,5.33
2017-06-16T17:44:16.584Z,4.10
2017-06-16T17:52:39.483Z,5.87
2017-06-16T17:55:07.045Z,8.10
2017-06-16T17:57:34.600Z,6.50
2017-06-16T18:00:02.237Z,5.77
2017-06-16T18:02:31.123Z,7.40
2017-06-16T18:04:59.459Z,5.43
2017-06-16T18:07:27.049Z,8.83
2017-06-16T18:09:54.574Z,5.40
2017-06-16T18:12:22.146Z,5.87
2017-06-16T18:14:49.762Z,5.73
2017-06-16T18:17:18.076Z,6.40
2017-06-16T18:19:45.625Z,6.57
2017-06-16T18:22:13.207Z,8.40
2017-06-16T18:24:40.750Z,6.93
2017-06-16T18:27:08.309Z,6.17
2017-06-16T18:29:35.898Z,5.73
2017-06-16T18:32:03.461Z,8.60
2017-06-16T18:34:31.006Z,7.90
2017-06-16T18:36:58.617Z,5.93
2017-06-16T18:39:26.177Z,6.27
2017-06-16T18:41:53.741Z,8.47
2017-06-16T18:44:21.344Z,8.20
2017-06-16T18:46:49.279Z,10.50
2017-06-16T18:49:16.836Z,9.23
2017-06-16T18:51:44.423Z,7.37
2017-06-16T18:54:11.990Z,8.43
2017-06-16T18:56:39.549Z,7.43
2017-06-16T18:59:08.055Z,8.30
2017-06-16T19:01:35.610Z,8.00
2017-06-16T19:04:03.157Z,8.30
2017-06-16T19:06:30.767Z,8.77
2017-06-16T19:08:58.387Z,10.10
2017-06-16T19:11:25.927Z,10.10
2017-06-16T19:13:53.526Z,7.67
2017-06-16T19:16:21.076Z,10.53
2017-06-16T19:18:48.630Z,8.03
2017-06-16T19:21:16.224Z,9.67
2017-06-16T19:23:43.777Z,10.00
2017-06-16T19:26:11.347Z,8.00
2017-06-16T19:28:38.998Z,9.10
2017-06-16T19:31:06.532Z,6.87
2017-06-16T19:33:34.134Z,6.30
2017-06-16T19:36:01.743Z,6.57
2017-06-16T19:38:29.298Z,6.50
2017-06-16T19:40:56.860Z,7.90
2017-06-16T19:43:24.439Z,7.73
2017-06-16T19:45:51.983Z,5.47
2017-06-16T19:48:20.632Z,6.90
2017-06-16T19:50:49.022Z,4.77
2017-06-16T19:53:17.364Z,5.50
2017-06-16T19:55:44.955Z,6.03
2017-06-16T19:58:13.325Z,7.40
2017-06-16T20:00:40.897Z,6.93
2017-06-16T20:03:09.202Z,7.23
2017-06-16T20:05:36.794Z,6.97
2017-06-16T20:08:04.337Z,4.90
2017-06-16T20:10:31.885Z,5.70
2017-06-16T20:12:59.535Z,7.40
2017-06-16T20:15:27.166Z,5.70
2017-06-16T20:17:54.701Z,5.60
2017-06-16T20:20:22.296Z,6.07
2017-06-16T20:22:49.824Z,5.87
2017-06-16T20:25:17.399Z,6.10
2017-06-16T20:27:45.017Z,5.23
2017-06-16T20:30:12.580Z,5.70
2017-06-16T20:32:40.107Z,7.00
2017-06-16T20:35:08.456Z,4.87
2017-06-16T20:37:36.008Z,9.13
2017-06-16T20:40:03.565Z,7.00
2017-06-16T20:42:31.152Z,5.07
2017-06-16T20:44:58.707Z,5.70
2017-06-16T20:47:26.252Z,11.00
2017-06-16T20:49:53.830Z,6.53
2017-06-16T20:52:21.353Z,5.17
2017-06-16T20:54:48.874Z,7.70
2017-06-16T20:57:16.479Z,5.13
2017-06-16T20:59:44.027Z,4.03
2017-06-16T21:02:11.566Z,6.70
2017-06-16T21:04:39.150Z,7.10
2017-06-16T21:07:06.682Z,4.23
2017-06-16T21:09:34.998Z,8.87
2017-06-16T21:12:02.590Z,7.90
2017-06-16T21:14:30.130Z,5.23
2017-06-16T21:16:57.683Z,3.93
2017-06-16T21:19:25.264Z,4.97
2017-06-16T21:21:58.456Z,3.43
2017-06-16T21:24:26.045Z,4.13
2017-06-16T21:26:53.622Z,8.03
2017-06-16T21:29:22.013Z,6.80
2017-06-16T21:31:49.590Z,5.20
2017-06-16T21:34:17.122Z,7.50
2017-06-16T21:36:44.662Z,5.83
2017-06-16T21:39:13.013Z,4.63
2017-06-16T21:41:40.560Z,6.10
2017-06-16T21:44:08.106Z,6.10
2017-06-16T21:46:35.676Z,5.23
2017-06-16T21:49:03.233Z,5.20
2017-06-16T21:51:30.782Z,3.37
2017-06-16T21:53:58.359Z,5.00
2017-06-16T21:56:26.016Z,7.10
2017-06-16T21:58:53.541Z,8.80
2017-06-16T22:01:21.122Z,4.43
2017-06-16T22:03:48.661Z,3.90
2017-06-16T22:06:16.950Z,6.80
2017-06-16T22:08:44.529Z,7.03
2017-06-16T22:11:12.082Z,6.57
2017-06-16T22:13:39.602Z,3.83
2017-06-16T22:16:07.201Z,5.47
2017-06-16T22:18:34.743Z,4.77
2017-06-16T22:21:03.032Z,9.33
2017-06-16T22:23:30.610Z,4.77
2017-06-16T22:25:58.147Z,7.97
2017-06-16T22:28:25.698Z,6.67
2017-06-16T22:30:54.044Z,10.37
2017-06-16T22:33:21.568Z,6.20
2017-06-16T22:35:49.080Z,6.70
2017-06-16T22:38:16.663Z,4.80
2017-06-16T22:40:44.202Z,18.80
2017-06-16T22:43:11.740Z,9.93
2017-06-16T22:45:39.314Z,7.50
2017-06-16T22:48:06.858Z,6.07
2017-06-16T22:50:34.382Z,5.90
2017-06-16T22:53:01.965Z,3.83
2017-06-16T22:55:29.522Z,5.57
2017-06-16T22:57:57.101Z,6.17
2017-06-16T23:00:24.664Z,5.20
2017-06-16T23:02:52.191Z,7.40
2017-06-16T23:05:19.722Z,5.57
2017-06-16T23:07:48.067Z,4.53
2017-06-16T23:10:15.624Z,11.03
2017-06-16T23:12:43.154Z,3.93
2017-06-16T23:15:10.749Z,7.00
2017-06-16T23:17:38.275Z,6.53
2017-06-16T23:20:05.808Z,3.87
2017-06-16T23:22:33.397Z,4.90
2017-06-16T23:25:00.917Z,4.03
2017-06-16T23:27:28.442Z,6.43
2017-06-16T23:29:56.009Z,5.23
2017-06-16T23:32:23.537Z,6.50
2017-06-16T23:34:51.078Z,10.13
2017-06-16T23:37:18.649Z,4.53
2017-06-16T23:39:46.175Z,7.43
2017-06-16T23:42:14.461Z,3.53
2017-06-16T23:44:42.065Z,7.63
2017-06-16T23:47:09.580Z,7.10
2017-06-16T23:49:37.876Z,7.03
2017-06-16T23:52:05.467Z,4.90
2017-06-16T23:54:33.017Z,5.27
2017-06-16T23:57:00.554Z,4.40
2017-06-16T23:59:28.156Z,4.90
